Greenbrier Valley Airport Lewisburg US
ICAO: KLWB
IATA: LWB
Category: Medium
Scheduled Services: No

Elevation: 2302 ft
TransAlt. 18000 ft.

Airport Communications:
AWOS 3:121.4
CLNC DEL:120.85
WASHINGTON CNTR:134.4
CTAF:118.9
GND:121.9
LEWISBURG TWR:118.9
UNICOM:122.95

KLWB Zoom In..

Runways:

(A) RW 04 length 7003 ft width 150 ft
ILS 110.35 / hdg 43

(B) RW 22 length 7003 ft width 150 ft
---- / hdg 223

Location; KLWB
Day. 25 / Time. 10.35 Zulu
* Altimeter: 29.81
* Temperature: 10° c. 50°f.
* Wind from: 000° Speed 00 kn.
Dewpoint: 10° c.
Visibility: 10 Statute Miles.
Clouds: Broken 1900 ft.
Clouds: Overcast 2700 ft.

KLWB 251035Z AUTO 00000KT 10SM BKN019 OVC027 10/10 A2981 RMK AO2 T01010095


Wind - Calm.

  YouTube Music Video
 
jpsmedia.com for Web Design  worldairports.se 2018   terms of use